Time;durP1;ratioP1;P1;durP2;ratioP2;P2;SDS_P1;SDS_P2;PMS_P1;PMS_P2;Temp;Humidity;BMP_temperature;BMP_pressure;BME280_temperature;BME280_humidity;BME280_pressure;Samples;Min_cycle;Max_cycle;Signal;HPM_P1;HPM_P2
2023/07/18 00:07:44;;;;;;;;;;;;;;;;;;;;;
2023/07/18 00:11:38;;;;;;;4.80;2.90;;;;;;;19.83;51.42;100490.95;129371;1267;128628;-71
2023/07/18 00:15:12;;;;;;;5.80;3.10;;;;;;;19.83;51.40;100508.67;128587;1272;116183;-69
2023/07/18 00:18:53;;;;;;;;;;;;;;;;;;;;;
2023/07/18 00:22:31;;;;;;;8.00;4.10;;;;;;;19.84;51.59;100499.05;127456;1284;2684459;-69
2023/07/18 00:26:01;;;;;;;7.00;3.50;;;;;;;19.84;51.72;100495.39;129265;1265;114844;-66
2023/07/18 00:29:55;;;;;;;7.10;3.30;;;;;;;19.84;52.13;100498.83;129595;1284;114935;-70
2023/07/18 00:33:45;;;;;;;7.30;3.70;;;;;;;19.83;53.16;100513.65;129574;1267;128845;-69
2023/07/18 00:37:26;;;;;;;5.00;3.60;;;;;;;19.77;54.01;100512.50;129332;1265;115585;-70
2023/07/18 00:40:32;;;;;;;8.50;3.40;;;;;;;19.67;54.73;100531.65;129520;1270;114911;-66
2023/07/18 00:43:54;;;;;;;5.90;3.60;;;;;;;19.57;55.08;100537.17;129282;1285;114981;-70
2023/07/18 00:47:37;;;;;;;;;;;;;;;;;;;;;
2023/07/18 00:50:58;;;;;;;6.00;3.90;;;;;;;19.33;55.67;100548.93;129658;1266;128841;-69
2023/07/18 00:54:32;;;;;;;;;;;;;;;;;;;;;
2023/07/18 00:57:56;;;;;;;5.50;3.50;;;;;;;19.09;56.01;100562.48;130336;1277;114624;-70
2023/07/18 01:01:30;;;;;;;;;;;;;;;;;;;;;
2023/07/18 01:04:52;;;;;;;7.80;3.70;;;;;;;18.85;55.82;100580.66;130000;1262;114805;-70
2023/07/18 01:08:15;;;;;;;5.80;3.40;;;;;;;18.76;56.14;100580.48;129583;1265;127770;-70
2023/07/18 01:11:21;;;;;;;10.90;3.80;;;;;;;18.69;56.40;100578.84;129229;1266;115256;-70
2023/07/18 01:14:50;;;;;;;5.00;3.20;;;;;;;18.63;56.62;100578.60;129594;1266;115698;-70
2023/07/18 01:18:15;;;;;;;;;;;;;;;;;;;;;
2023/07/18 01:21:29;;;;;;;5.80;2.80;;;;;;;18.48;56.89;100569.27;129461;1268;114910;-69
2023/07/18 01:25:22;;;;;;;10.70;3.70;;;;;;;18.41;56.99;100570.88;129349;1267;129151;-68
2023/07/18 01:29:25;;;;;;;7.40;3.60;;;;;;;18.32;56.95;100570.72;129667;1269;115671;-70
2023/07/18 01:32:57;;;;;;;7.10;3.40;;;;;;;18.20;57.21;100576.82;128025;1285;114848;-69
2023/07/18 01:37:02;;;;;;;5.80;4.10;;;;;;;18.12;57.34;100577.53;127622;1286;115315;-69
2023/07/18 01:41:03;;;;;;;5.20;2.80;;;;;;;18.01;57.42;100583.73;127257;1303;114923;-69
2023/07/18 01:44:45;;;;;;;10.10;3.50;;;;;;;17.91;57.66;100590.44;127006;1304;129938;-67
2023/07/18 01:48:26;;;;;;;6.60;3.50;;;;;;;17.82;57.78;100593.80;127356;1288;114846;-67
2023/07/18 01:52:27;;;;;;;4.20;3.40;;;;;;;17.73;58.08;100596.80;127172;1285;115113;-70
2023/07/18 02:04:34;;;;;;;4.80;2.90;;;;;;;17.39;58.67;100601.16;125201;1326;129677;-68
2023/07/18 02:12:29;;;;;;;4.90;3.20;;;;;;;17.14;59.11;100621.86;125639;1298;115007;-68
2023/07/18 02:16:30;;;;;;;;;;;;;;;;;;;;;
2023/07/18 02:20:55;;;;;;;5.70;3.40;;;;;;;16.89;59.66;100627.42;125815;1297;635939;-68
2023/07/18 02:24:58;;;;;;;10.10;3.80;;;;;;;16.73;59.97;100635.25;128889;1275;127852;-66
2023/07/18 02:29:01;;;;;;;7.10;3.60;;;;;;;16.59;60.34;100639.45;127843;1303;115223;-66
2023/07/18 02:33:06;;;;;;;5.90;3.90;;;;;;;16.46;60.68;100641.42;123377;1287;5442365;-66
2023/07/18 02:37:06;;;;;;;8.50;4.00;;;;;;;16.33;60.88;100646.10;125548;1305;114979;-66
2023/07/18 02:41:07;;;;;;;9.20;3.80;;;;;;;16.22;61.13;100660.52;124997;1305;115128;-66
2023/07/18 02:49:42;;;;;;;7.60;3.70;;;;;;;16.04;61.61;100660.08;125854;1299;638413;-71
2023/07/18 03:06:48;;;;;;;8.30;4.60;;;;;;;15.72;62.73;100666.83;127273;1286;115406;-70
2023/07/18 03:10:24;;;;;;;12.20;3.70;;;;;;;15.66;63.21;100676.94;122179;1295;5535835;-71
2023/07/18 03:18:44;;;;;;;6.00;3.50;;;;;;;15.59;63.49;100679.39;125696;1302;639956;-71
2023/07/18 03:22:47;;;;;;;5.40;3.70;;;;;;;15.55;63.92;100682.55;128058;1283;129348;-70
2023/07/18 03:26:50;;;;;;;6.40;3.50;;;;;;;15.52;64.18;100688.45;126697;1311;116344;-71
2023/07/18 03:30:51;;;;;;;8.70;3.50;;;;;;;15.51;64.47;100697.51;121793;1299;5460955;-71
2023/07/18 03:39:23;;;;;;;;;;;;;;;;;;;;;
2023/07/18 03:43:28;;;;;;;8.60;4.50;;;;;;;15.54;65.50;100702.55;126925;1293;127714;-69
2023/07/18 03:51:30;;;;;;;5.40;3.40;;;;;;;15.59;65.72;100704.77;121369;1308;5510766;-71
2023/07/18 03:55:30;;;;;;;;;;;;;;;;;;;;;
2023/07/18 04:04:05;;;;;;;6.80;4.00;;;;;;;15.73;66.18;100718.47;126055;1309;636023;-71
2023/07/18 04:08:07;;;;;;;6.60;3.70;;;;;;;15.77;66.37;100723.63;128466;1287;127642;-70
2023/07/18 04:12:09;;;;;;;;;;;;;;;;;;;;;
2023/07/18 04:16:11;;;;;;;7.00;3.10;;;;;;;15.85;66.51;100734.64;122311;1299;5446141;-71
2023/07/18 04:20:13;;;;;;;6.10;3.50;;;;;;;15.91;66.61;100737.50;125637;1303;114949;-70
2023/07/18 04:28:48;;;;;;;7.90;3.60;;;;;;;16.05;66.66;100745.45;125653;1311;636828;-69
2023/07/18 04:32:50;;;;;;;5.00;3.10;;;;;;;16.11;66.70;100748.46;127098;1292;127881;-70
2023/07/18 04:36:50;;;;;;;8.50;3.20;;;;;;;16.20;66.94;100755.46;126036;1299;115402;-71
2023/07/18 04:40:50;;;;;;;;;;;;;;;;;;;;;
2023/07/18 04:49:23;;;;;;;;;;;;;;;;;;;;;
2023/07/18 04:53:16;;;;;;;4.50;3.00;;;;;;;19.99;65.60;100746.99;127645;1287;128762;-72
2023/07/18 05:01:20;;;;;;;6.00;3.30;;;;;;;23.29;61.48;100746.31;121905;1302;5418074;-72
2023/07/18 05:09:55;;;;;;;4.90;2.80;;;;;;;25.90;56.63;100747.52;125623;1304;637928;-72
2023/07/18 05:13:55;;;;;;;;;;;;;;;;;;;;;
2023/07/18 05:18:13;;;;;;;4.60;3.00;;;;;;;26.61;51.79;100752.43;125879;1301;114952;-73
2023/07/18 05:22:14;;;;;;;4.00;3.40;;;;;;;26.58;51.01;100751.89;121446;1311;5365616;-73
2023/07/18 05:30:47;;;;;;;6.90;2.80;;;;;;;26.58;48.71;100766.17;126437;1292;642831;-74
2023/07/18 05:38:52;;;;;;;4.30;2.40;;;;;;;26.38;47.64;100775.86;127216;1301;114981;-74
2023/07/18 05:42:55;;;;;;;4.80;2.50;;;;;;;26.25;46.92;100776.55;122851;1297;5459278;-73
2023/07/18 05:46:56;;;;;;;4.70;2.80;;;;;;;26.04;46.33;100775.48;125453;1321;114804;-74
2023/07/18 05:55:13;;;;;;;4.40;2.50;;;;;;;26.07;46.28;100773.31;126387;1296;638546;-73
2023/07/18 05:59:16;;;;;;;4.10;2.50;;;;;;;26.42;45.83;100775.27;128995;1273;120992;-74
2023/07/18 06:03:20;;;;;;;5.10;2.70;;;;;;;26.95;45.30;100775.81;127845;1284;114800;-75
2023/07/18 06:07:20;;;;;;;3.10;2.50;;;;;;;27.42;43.83;100776.52;122987;1289;5518380;-74
2023/07/18 06:19:25;;;;;;;3.20;2.50;;;;;;;28.62;41.80;100789.29;125110;1328;114980;-72
2023/07/18 06:27:51;;;;;;;2.40;2.20;;;;;;;29.67;40.78;100784.63;125706;1300;637854;-76
2023/07/18 06:31:57;;;;;;;3.60;2.60;;;;;;;30.08;39.39;100781.64;128411;1283;119300;-74
2023/07/18 06:36:00;;;;;;;4.70;2.20;;;;;;;30.40;38.99;100788.23;128206;1277;114932;-78
2023/07/18 06:40:02;;;;;;;5.50;2.30;;;;;;;30.61;38.01;100789.55;124162;1282;5422023;-72
2023/07/18 06:44:28;;;;;;;4.00;2.40;;;;;;;30.67;37.42;100793.19;126274;1315;114927;-75
2023/07/18 06:52:30;;;;;;;4.80;2.50;;;;;;;30.93;36.66;100787.60;126414;1298;636534;-77
2023/07/18 06:56:33;;;;;;;3.50;2.40;;;;;;;30.91;35.99;100786.95;128273;1280;120588;-76
2023/07/18 07:00:36;;;;;;;3.90;2.60;;;;;;;30.84;35.20;100783.65;127274;1290;114937;-74
2023/07/18 07:04:39;;;;;;;4.40;2.50;;;;;;;30.80;35.44;100783.94;122647;1295;5428533;-76
2023/07/18 07:08:38;;;;;;;;;;;;;;;;;;;;;
2023/07/18 07:12:40;;;;;;;1.40;1.30;;;;;;;30.97;34.72;100784.95;125185;1324;115038;-75
2023/07/18 07:20:58;;;;;;;5.50;2.80;;;;;;;31.53;33.69;100784.42;125766;1306;636787;-76
2023/07/18 07:24:52;;;;;;;4.90;2.10;;;;;;;31.88;33.33;100786.05;127439;1289;120016;-72
2023/07/18 07:32:56;;;;;;;4.70;2.30;;;;;;;32.38;32.24;100784.86;122442;1315;5434473;-76
2023/07/18 07:36:56;;;;;;;;;;;;;;;;;;;;;
2023/07/18 07:40:58;;;;;;;3.80;2.10;;;;;;;32.88;31.61;100772.72;124877;1318;114972;-76
2023/07/18 07:49:33;;;;;;;3.20;2.10;;;;;;;33.45;31.18;100768.64;126090;1300;638574;-76
2023/07/18 07:53:35;;;;;;;2.60;2.40;;;;;;;33.87;30.86;100766.19;128802;1276;120259;-77
2023/07/18 07:57:39;;;;;;;4.20;2.30;;;;;;;34.26;30.18;100766.83;128144;1282;114820;-78
2023/07/18 08:01:43;;;;;;;3.10;1.70;;;;;;;34.37;29.37;100763.77;122848;1292;5438209;-76
2023/07/18 08:05:44;;;;;;;2.10;2.00;;;;;;;34.46;29.00;100767.30;125858;1312;114961;-74
2023/07/18 08:13:47;;;;;;;3.60;2.30;;;;;;;34.52;28.81;100758.83;125737;1299;114825;-76
2023/07/18 08:26:25;;;;;;;3.80;2.00;;;;;;;34.50;27.56;100756.36;128761;1277;119268;-77
2023/07/18 08:30:30;;;;;;;6.10;1.80;;;;;;;34.33;27.22;100755.20;128239;1282;114848;-75
2023/07/18 08:34:34;;;;;;;3.10;2.10;;;;;;;34.22;27.41;100753.17;123321;1290;5430417;-76
2023/07/18 08:38:26;;;;;;;;;;;;;;;;;;;;;
2023/07/18 08:42:19;;;;;;;3.40;1.70;;;;;;;33.91;27.04;100749.59;125655;1305;114937;-75
2023/07/18 08:50:54;;;;;;;3.10;1.80;;;;;;;33.93;27.26;100733.68;125654;1299;638292;-76
2023/07/18 08:54:55;;;;;;;6.20;2.00;;;;;;;33.79;26.68;100727.34;128152;1281;120059;-74
2023/07/18 08:58:59;;;;;;;4.20;2.40;;;;;;;33.50;26.47;100725.17;127141;1292;114930;-73
2023/07/18 09:03:01;;;;;;;2.70;1.80;;;;;;;33.41;27.17;100731.57;122889;1291;5533216;-75
2023/07/18 09:11:42;;;;;;;2.80;1.90;;;;;;;33.45;27.04;100723.55;126574;1304;638441;-75
2023/07/18 09:15:45;;;;;;;2.80;1.80;;;;;;;33.21;26.98;100720.65;128254;1291;119245;-75
2023/07/18 09:23:54;;;;;;;2.30;1.50;;;;;;;32.49;27.11;100713.33;121633;1308;5468298;-73
2023/07/18 09:27:56;;;;;;;3.60;1.50;;;;;;;32.35;27.46;100706.75;125131;1310;114856;-76
2023/07/18 09:32:00;;;;;;;1.60;1.40;;;;;;;32.24;27.16;100708.55;125124;1324;114962;-71
2023/07/18 09:40:26;;;;;;;2.60;1.50;;;;;;;31.74;26.43;100698.60;126287;1297;636960;-71
2023/07/18 09:44:29;;;;;;;3.10;1.90;;;;;;;31.32;26.62;100697.17;129068;1274;119505;-73
2023/07/18 09:48:31;;;;;;;1.60;1.50;;;;;;;30.94;26.82;100693.06;128619;1286;114878;-74
2023/07/18 09:52:35;;;;;;;3.30;1.70;;;;;;;30.71;27.26;100695.14;123480;1289;5407469;-72
2023/07/18 09:56:39;;;;;;;2.30;2.10;;;;;;;30.41;27.43;100690.98;126793;1292;115068;-70
2023/07/18 10:00:44;;;;;;;3.00;1.70;;;;;;;30.06;27.73;100684.41;126385;1297;114826;-74
2023/07/18 10:04:42;;;;;;;4.80;1.70;;;;;;;29.75;28.18;100674.80;125331;1309;114988;-73
2023/07/18 10:08:46;;;;;;;2.90;1.50;;;;;;;29.46;28.55;100671.28;125026;1313;121487;-71
2023/07/18 10:12:59;;;;;;;2.90;2.00;;;;;;;29.21;28.65;100670.80;125122;1303;116142;-73
2023/07/18 10:21:44;;;;;;;4.20;2.00;;;;;;;28.52;29.22;100664.41;126310;1299;638807;-72
2023/07/18 10:25:50;;;;;;;4.80;1.80;;;;;;;28.20;29.48;100659.02;128778;1286;119549;-74
2023/07/18 10:29:53;;;;;;;2.50;1.60;;;;;;;28.00;29.95;100652.75;127865;1295;114741;-72
2023/07/18 10:33:56;;;;;;;3.50;1.60;;;;;;;27.86;30.33;100645.54;123511;1290;5445839;-75
2023/07/18 10:38:02;;;;;;;5.10;2.00;;;;;;;27.75;30.43;100638.05;127655;1287;114894;-75
2023/07/18 10:42:03;;;;;;;;;;;;;;;;;;;;;
2023/07/18 10:50:28;;;;;;;7.40;1.80;;;;;;;27.56;31.22;100621.52;125905;1303;120290;-75
2023/07/18 10:54:29;;;;;;;3.20;1.60;;;;;;;27.61;31.02;100618.25;125139;1310;114808;-72
2023/07/18 11:02:29;;;;;;;3.10;1.60;;;;;;;27.58;31.45;100609.77;124177;1316;114938;-73
2023/07/18 11:06:30;;;;;;;2.20;1.70;;;;;;;27.65;31.72;100607.09;124249;1315;114857;-74
2023/07/18 11:10:30;;;;;;;;;;;;;;;;;;;;;
2023/07/18 11:14:30;;;;;;;;;;;;;;;;;;;;;
2023/07/18 11:18:54;;;;;;;;;;;;;;;;;;;;;
2023/07/18 11:22:58;;;;;;;3.10;1.90;;;;;;;27.51;30.91;100583.08;127606;1287;120284;-72
2023/07/18 11:27:00;;;;;;;2.60;1.80;;;;;;;27.42;31.01;100576.94;127385;1287;115195;-73
2023/07/18 11:31:08;;;;;;;2.90;1.40;;;;;;;27.48;31.26;100568.71;122632;1295;5448401;-71
2023/07/18 11:35:09;;;;;;;3.40;1.80;;;;;;;27.53;31.10;100569.41;125042;1310;114961;-73
2023/07/18 11:39:00;;;;;;;;;;;;;;;;;;;;;
2023/07/18 11:43:44;;;;;;;2.60;1.60;;;;;;;27.48;30.84;100550.95;126220;1302;636872;-74
2023/07/18 11:51:47;;;;;;;2.50;1.60;;;;;;;27.40;30.69;100536.77;125865;1318;114973;-73
2023/07/18 12:00:22;;;;;;;3.20;1.90;;;;;;;27.36;30.79;100525.55;125722;1300;638037;-70
2023/07/18 12:04:01;;;;;;;;;;;;;;;;;;;;;
2023/07/18 12:08:26;;;;;;;2.80;1.90;;;;;;;27.29;30.61;100514.91;128239;1280;114830;-72
2023/07/18 12:12:10;;;;;;;5.60;2.00;;;;;;;27.28;30.87;100506.05;124529;1277;5431341;-70
2023/07/18 12:20:04;;;;;;;4.20;2.00;;;;;;;27.22;30.69;100498.85;125719;1305;114916;-71
2023/07/18 12:23:53;;;;;;;2.30;1.70;;;;;;;27.20;30.77;100496.77;124901;1310;120927;-70
2023/07/18 12:27:55;;;;;;;1.80;1.60;;;;;;;27.15;30.92;100500.23;124124;1319;115014;-71
2023/07/18 12:31:55;;;;;;;;;;;;;;;;;;;;;
2023/07/18 12:36:22;;;;;;;;;;;;;;;;;;;;;
2023/07/18 12:40:26;;;;;;;4.20;1.70;;;;;;;27.05;30.75;100485.32;128219;1280;119991;-80
2023/07/18 12:44:25;;;;;;;;;;;;;;;;;;;;;
2023/07/18 12:48:09;;;;;;;3.60;1.50;;;;;;;27.10;30.86;100474.27;122971;1290;5438575;-75
2023/07/18 12:56:12;;;;;;;2.40;1.60;;;;;;;27.18;31.02;100456.35;125812;1307;115037;-79
2023/07/18 13:04:48;;;;;;;3.60;1.90;;;;;;;27.17;30.63;100442.50;125843;1300;643708;-76
2023/07/18 13:08:50;;;;;;;1.50;1.40;;;;;;;27.11;30.48;100442.71;128942;1274;120313;-75
2023/07/18 13:12:38;;;;;;;;;;;;;;;;;;;;;
2023/07/18 13:16:41;;;;;;;2.70;1.30;;;;;;;27.14;31.08;100427.21;123941;1282;5434383;-78
2023/07/18 13:20:44;;;;;;;3.70;1.80;;;;;;;27.13;30.92;100420.36;126855;1293;114941;-76
2023/07/18 13:28:48;;;;;;;2.90;2.10;;;;;;;27.10;31.00;100417.17;127070;1305;115044;-72
2023/07/18 13:36:50;;;;;;;2.40;1.70;;;;;;;27.03;30.65;100434.23;124224;1315;114973;-76
2023/07/18 13:40:31;;;;;;;3.00;1.50;;;;;;;26.96;30.52;100437.99;123604;1319;114954;-73
2023/07/18 13:44:45;;;;;;;2.70;1.80;;;;;;;26.99;30.83;100448.38;126685;1292;636038;-73
2023/07/18 13:48:22;;;;;;;3.80;2.10;;;;;;;27.04;30.78;100437.02;128645;1281;119065;-70
2023/07/18 13:52:26;;;;;;;4.20;1.60;;;;;;;27.04;30.30;100419.00;128452;1279;114823;-63
2023/07/18 13:56:18;;;;;;;1.80;1.50;;;;;;;27.04;30.37;100412.65;126941;1289;114952;-65
2023/07/18 14:00:09;;;;;;;9.40;2.10;;;;;;;27.03;30.64;100402.52;123323;1290;115020;-64
2023/07/18 14:03:46;;;;;;;4.40;1.80;;;;;;;27.02;30.67;100388.83;125585;1301;115403;-62
2023/07/18 14:07:39;;;;;;;;;;;;;;;;;;;;;
2023/07/18 14:11:07;;;;;;;2.50;1.70;;;;;;;26.98;30.47;100388.59;125298;1299;121183;-63
2023/07/18 14:15:08;;;;;;;2.70;1.90;;;;;;;26.95;30.49;100393.48;125603;1301;114862;-65
2023/07/18 14:19:02;;;;;;;1.80;1.70;;;;;;;26.96;30.47;100387.34;124755;1319;114824;-64
2023/07/18 14:22:48;;;;;;;2.60;1.50;;;;;;;26.96;30.20;100380.39;124304;1331;114856;-64
2023/07/18 14:26:51;;;;;;;3.00;1.30;;;;;;;26.95;30.06;100381.77;125107;1308;114961;-64
2023/07/18 14:30:40;;;;;;;6.20;1.50;;;;;;;26.96;30.37;100377.67;124567;1331;121207;-67
2023/07/18 14:34:24;;;;;;;5.40;2.10;;;;;;;26.99;30.59;100361.50;125669;1304;115240;-66
2023/07/18 14:38:27;;;;;;;4.90;1.90;;;;;;;27.02;30.65;100352.36;125252;1307;114898;-66
2023/07/18 14:41:57;;;;;;;2.90;2.10;;;;;;;26.99;30.77;100339.53;125457;1323;114895;-66
2023/07/18 14:45:58;;;;;;;2.60;1.80;;;;;;;26.99;30.90;100341.52;125614;1305;114805;-65
2023/07/18 14:49:33;;;;;;;5.00;2.10;;;;;;;27.06;30.76;100339.75;125096;1307;120993;-65
2023/07/18 14:53:16;;;;;;;4.00;1.80;;;;;;;27.17;30.71;100340.84;124646;1310;115196;-65
2023/07/18 14:56:55;;;;;;;;;;;;;;;;;;;;;
2023/07/18 15:00:19;;;;;;;2.50;1.40;;;;;;;27.42;30.51;100345.07;124831;1318;115177;-65
2023/07/18 15:03:49;;;;;;;;;;;;;;;;;;;;;
2023/07/18 15:07:41;;;;;;;5.70;1.80;;;;;;;27.62;30.21;100343.21;124975;1310;121186;-65
2023/07/18 15:11:39;;;;;;;;;;;;;;;;;;;;;
2023/07/18 15:15:40;;;;;;;;;;;;;;;;;;;;;
2023/07/18 15:19:14;;;;;;;;;;;;;;;;;;;;;
2023/07/18 15:23:01;;;;;;;2.90;1.80;;;;;;;27.78;30.03;100348.81;126464;1294;115101;-65
2023/07/18 15:26:21;;;;;;;3.30;2.00;;;;;;;27.84;30.03;100344.10;126542;1295;121038;-63
2023/07/18 15:30:07;;;;;;;3.00;1.90;;;;;;;27.88;29.92;100334.03;126610;1290;115021;-66
2023/07/18 15:33:48;;;;;;;;;;;;;;;;;;;;;
2023/07/18 15:37:36;;;;;;;3.50;1.90;;;;;;;28.12;30.08;100318.73;126378;1292;114947;-63
2023/07/18 15:41:30;;;;;;;7.00;2.00;;;;;;;28.26;30.03;100310.60;126040;1294;114964;-64
2023/07/18 15:45:30;;;;;;;3.60;1.30;;;;;;;28.33;29.79;100302.55;125777;1300;119543;-65
2023/07/18 15:49:04;;;;;;;2.50;1.40;;;;;;;28.34;29.41;100299.92;125696;1302;114894;-65
2023/07/18 15:53:01;;;;;;;1.90;1.30;;;;;;;28.23;29.28;100297.20;125047;1308;114907;-65
2023/07/18 15:57:06;;;;;;;1.50;1.40;;;;;;;28.11;29.59;100291.53;125344;1311;114975;-64
2023/07/18 16:01:01;;;;;;;2.40;1.90;;;;;;;27.98;29.57;100286.68;124849;1320;114769;-72
2023/07/18 16:08:46;;;;;;;2.80;1.60;;;;;;;27.63;29.57;100272.30;125269;1304;639680;-64
2023/07/18 16:11:59;;;;;;;5.50;2.20;;;;;;;27.48;29.57;100270.66;128277;1277;120909;-66
2023/07/18 16:15:11;;;;;;;2.70;1.70;;;;;;;27.33;29.63;100269.48;129102;1265;114942;-68
2023/07/18 16:18:13;;;;;;;4.30;1.80;;;;;;;27.25;29.87;100261.33;129008;1273;115783;-66
2023/07/18 16:21:37;;;;;;;;;;;;;;;;;;;;;
2023/07/18 16:25:42;;;;;;;2.40;1.80;;;;;;;27.23;30.02;100238.73;129239;1277;114823;-67
2023/07/18 16:29:09;;;;;;;;;;;;;;;;;;;;;
2023/07/18 16:33:02;;;;;;;;;;;;;;;;;;;;;
2023/07/18 16:36:37;;;;;;;;;;;;;;;;;;;;;
2023/07/18 16:40:18;;;;;;;;;;;;;;;;;;;;;
2023/07/18 16:43:47;;;;;;;1.60;1.50;;;;;;;27.07;30.41;100209.67;127966;1291;114852;-65
2023/07/18 16:46:54;;;;;;;4.80;2.00;;;;;;;27.01;30.37;100213.77;127878;1280;120314;-65
2023/07/18 16:50:06;;;;;;;3.40;1.90;;;;;;;26.93;30.35;100216.64;128284;1283;114747;-65
2023/07/18 16:53:40;;;;;;;;;;;;;;;;;;;;;
2023/07/18 16:57:27;;;;;;;3.60;2.10;;;;;;;26.68;30.45;100212.09;127820;1297;114923;-66
2023/07/18 17:01:18;;;;;;;3.00;2.10;;;;;;;26.52;30.71;100206.55;128179;1297;115205;-65
2023/07/18 17:05:03;;;;;;;4.10;2.30;;;;;;;26.36;30.75;100200.52;127327;1285;120235;-67
2023/07/18 17:08:15;;;;;;;3.20;2.00;;;;;;;26.22;30.72;100199.65;128241;1276;114897;-66
2023/07/18 17:11:18;;;;;;;;;;;;;;;26.10;30.93;100203.06;127852;1282;114779;-67
2023/07/18 17:15:11;;;;;;;4.10;2.00;;;;;;;25.95;30.96;100203.86;128900;1294;114955;-67
2023/07/18 17:19:02;;;;;;;;;;;;;;;;;;;;;
2023/07/18 17:22:57;;;;;;;2.90;1.60;;;;;;;25.51;31.47;100194.96;127168;1289;119266;-67
2023/07/18 17:26:50;;;;;;;;;;;;;;;;;;;;;
2023/07/18 17:30:40;;;;;;;2.20;2.00;;;;;;;25.16;32.09;100197.66;126107;1300;115029;-66
2023/07/18 17:34:41;;;;;;;2.60;1.70;;;;;;;25.02;32.32;100196.14;125803;1295;114950;-66
2023/07/18 17:38:34;;;;;;;;;;;;;;;;;;;;;
2023/07/18 17:42:35;;;;;;;;;;;;;;;;;;;;;
2023/07/18 17:46:57;;;;;;;4.80;1.80;;;;;;;24.66;33.20;100186.05;125469;1301;637663;-65
2023/07/18 17:51:00;;;;;;;2.30;1.70;;;;;;;24.52;33.52;100185.17;127118;1299;127787;-65
2023/07/18 17:55:04;;;;;;;2.80;1.70;;;;;;;24.40;33.75;100185.06;125725;1302;115119;-66
2023/07/18 17:58:55;;;;;;;4.50;1.50;;;;;;;24.28;34.07;100184.56;121225;1306;5465108;-67
2023/07/18 18:02:57;;;;;;;2.30;1.60;;;;;;;24.16;34.20;100184.37;125190;1310;115303;-67
2023/07/18 18:06:58;;;;;;;2.80;1.80;;;;;;;24.03;34.50;100182.77;124496;1325;115010;-66
2023/07/18 18:10:49;;;;;;;3.70;1.70;;;;;;;23.92;35.03;100178.36;124447;1313;115021;-66
2023/07/18 18:14:41;;;;;;;2.60;1.80;;;;;;;23.77;35.11;100176.83;123621;1316;127740;-67
2023/07/18 18:18:36;;;;;;;;;;;;;;;;;;;;;
2023/07/18 18:22:37;;;;;;;1.60;1.50;;;;;;;23.54;35.60;100170.85;126341;1292;636126;-67
2023/07/18 18:26:20;;;;;;;3.20;2.10;;;;;;;23.40;35.82;100168.73;128975;1273;128935;-66
2023/07/18 18:30:06;;;;;;;4.10;2.00;;;;;;;23.28;35.97;100175.65;128448;1279;115182;-65
2023/07/18 18:34:09;;;;;;;3.50;2.20;;;;;;;23.16;36.24;100181.21;128891;1273;114805;-65
2023/07/18 18:37:56;;;;;;;4.10;2.50;;;;;;;23.00;36.56;100175.38;124077;1299;114941;-65
2023/07/18 18:42:12;;;;;;;3.30;2.10;;;;;;;22.86;36.79;100171.19;126921;1291;115000;-64
2023/07/18 18:50:15;;;;;;;4.20;1.80;;;;;;;22.55;37.76;100177.87;124896;1304;127964;-66
2023/07/18 18:54:02;;;;;;;;;;;;;;;;;;;;;
2023/07/18 19:02:26;;;;;;;4.50;2.30;;;;;;;22.09;38.70;100180.58;126190;1292;636183;-65
2023/07/18 19:06:19;;;;;;;3.80;1.80;;;;;;;21.92;38.98;100183.94;128156;1282;128788;-65
2023/07/18 19:13:54;;;;;;;6.00;3.20;;;;;;;21.59;40.01;100182.83;122904;1298;5444612;-63
2023/07/18 19:18:12;;;;;;;4.90;2.90;;;;;;;21.42;40.20;100182.02;125479;1317;114845;-64
2023/07/18 19:22:03;;;;;;;4.60;3.00;;;;;;;21.32;40.50;100180.30;125075;1325;114975;-65
2023/07/18 19:25:54;;;;;;;8.10;3.50;;;;;;;21.18;40.82;100173.06;125234;1307;114885;-66
2023/07/18 19:29:55;;;;;;;8.80;4.10;;;;;;;21.06;41.53;100179.55;125159;1323;129724;-65
2023/07/18 19:38:30;;;;;;;12.70;3.60;;;;;;;20.75;42.21;100178.80;125539;1300;640997;-64
2023/07/18 19:42:02;;;;;;;11.70;3.90;;;;;;;20.58;42.82;100177.14;128330;1276;128898;-66
2023/07/18 19:46:07;;;;;;;6.20;3.40;;;;;;;20.44;43.18;100175.86;127523;1287;114945;-67
2023/07/18 19:50:00;;;;;;;;;;;;;;;;;;;;;
2023/07/18 19:53:52;;;;;;;;;;;;;;;;;;;;;
2023/07/18 19:57:02;;;;;;;6.30;3.20;;;;;;;20.07;44.23;100187.97;125091;1311;114882;-66
2023/07/18 20:01:05;;;;;;;8.90;3.20;;;;;;;19.95;44.46;100186.88;125226;1321;129484;-69
2023/07/18 20:05:05;;;;;;;5.20;3.50;;;;;;;19.79;44.78;100183.04;125075;1310;116420;-68
2023/07/18 20:13:27;;;;;;;;;;;;;;;;;;;;;
2023/07/18 20:20:54;;;;;;;;;;;;;;;;;;;;;
2023/07/18 20:29:08;;;;;;;5.80;3.60;;;;;;;19.00;47.22;100189.41;121489;1315;115058;-69
2023/07/18 20:33:01;;;;;;;;;;;;;;;;;;;;;
2023/07/18 20:41:35;;;;;;;7.20;3.60;;;;;;;18.67;48.45;100188.19;126344;1296;639315;-70
2023/07/18 20:46:00;;;;;;;5.10;3.50;;;;;;;18.58;48.56;100192.57;128700;1274;128829;-69
2023/07/18 20:53:47;;;;;;;3.00;1.90;;;;;;;18.43;51.38;100191.19;123706;1284;5473153;-76
2023/07/18 20:57:51;;;;;;;;;;;;;;;;;;;;;
2023/07/18 21:01:53;;;;;;;5.80;3.80;;;;;;;18.31;50.11;100192.89;125714;1304;114951;-70
2023/07/18 21:10:00;;;;;;;;;;;;;;;;;;;;;
2023/07/18 21:18:07;;;;;;;6.60;4.30;;;;;;;17.83;50.95;100179.65;127015;1308;116580;-65
2023/07/18 21:22:13;;;;;;;7.30;4.30;;;;;;;17.71;51.16;100177.92;122234;1306;5667100;-67
2023/07/18 21:26:14;;;;;;;6.80;4.60;;;;;;;17.58;51.63;100175.14;125057;1311;114865;-69
2023/07/18 21:34:28;;;;;;;7.80;4.20;;;;;;;17.41;52.12;100170.23;126021;1304;636061;-67
2023/07/18 21:38:32;;;;;;;6.90;4.10;;;;;;;17.31;52.59;100171.19;127510;1284;128799;-70
2023/07/18 21:42:25;;;;;;;5.10;3.90;;;;;;;17.22;52.91;100170.83;126771;1292;115239;-71
2023/07/18 21:46:29;;;;;;;;;;;;;;;;;;;;;
2023/07/18 21:55:05;;;;;;;5.90;3.90;;;;;;;17.01;53.59;100166.84;125668;1303;637350;-70
2023/07/18 21:59:07;;;;;;;6.50;3.90;;;;;;;16.93;54.01;100165.81;127155;1290;129567;-66
2023/07/18 22:03:13;;;;;;;8.60;3.80;;;;;;;16.86;54.27;100172.48;125768;1298;115231;-69
2023/07/18 22:07:15;;;;;;;6.60;3.30;;;;;;;16.82;54.64;100170.30;120830;1313;5447343;-68
2023/07/18 22:15:41;;;;;;;5.20;3.10;;;;;;;16.73;55.01;100171.34;125706;1300;636778;-70
2023/07/18 22:19:44;;;;;;;6.30;3.50;;;;;;;16.66;55.28;100171.35;128311;1278;128410;-69
2023/07/18 22:23:46;;;;;;;8.00;3.80;;;;;;;16.59;55.35;100168.29;129343;1270;115285;-69
2023/07/18 22:27:46;;;;;;;;;;;;;;;;;;;;;
2023/07/18 22:31:48;;;;;;;5.60;3.50;;;;;;;16.43;56.14;100161.58;127763;1289;114956;-68
2023/07/18 22:35:38;;;;;;;7.20;4.30;;;;;;;16.37;56.52;100159.11;126152;1301;114967;-71
2023/07/18 22:39:40;;;;;;;6.80;3.40;;;;;;;16.31;56.69;100156.11;125248;1323;114853;-69
2023/07/18 22:48:15;;;;;;;5.00;3.20;;;;;;;16.24;56.92;100143.67;125424;1302;637912;-69
2023/07/18 22:52:18;;;;;;;7.10;3.30;;;;;;;16.19;57.06;100136.50;126767;1291;128619;-70
2023/07/18 22:56:16;;;;;;;7.00;3.30;;;;;;;16.16;57.03;100133.15;126308;1291;115192;-69
2023/07/18 23:00:17;;;;;;;5.90;3.90;;;;;;;16.14;56.91;100129.70;121566;1305;5451316;-70
2023/07/18 23:04:19;;;;;;;4.20;2.90;;;;;;;16.11;56.92;100127.36;124659;1328;114884;-71
2023/07/18 23:13:12;;;;;;;3.80;2.60;;;;;;;16.14;56.74;100112.43;125761;1298;652871;-71
2023/07/18 23:21:17;;;;;;;8.70;2.90;;;;;;;16.11;56.73;100113.48;126263;1300;115340;-67
2023/07/18 23:25:17;;;;;;;6.10;3.30;;;;;;;16.06;57.08;100101.97;120840;1308;5438531;-69
2023/07/18 23:32:59;;;;;;;;;;;;;;;15.97;57.12;100084.28;123315;1324;114913;-68
2023/07/18 23:45:35;;;;;;;4.10;2.90;;;;;;;15.88;57.27;100083.88;128330;1281;128257;-65
2023/07/18 23:53:58;;;;;;;5.90;3.40;;;;;;;15.82;57.70;100068.11;125649;1311;638525;-66
2023/07/18 23:58:01;;;;;;;7.60;3.30;;;;;;;15.77;57.83;100065.62;126448;1312;128775;-68
